Ponteareas, Spain
Current Conditions -  °F | °C
As of 6:30 AM on Friday 28 Nov 2014 (Local Time) from LEVX Reporting Station
Light Rain Light Rain  
Wind Chill:   Ceiling: 4400
Heat Index:   Visibility: 6mi
Dew Point:   Wind: 8mph
Humidity: 100%   Direction: 280°W
Pressure: 28.85"   Gusts: NA
Location:  42.18°N, 8.5°W
Report Text: LEVX 280530Z 28007KT 240V330 9999 -RA SCT003 BKN044 09/09 Q0977 TEMPO 3000 RA
Loading
Personal Weather Stations






























Interactive Weather Map New forecast layout! Learn more

10-Day Weather Forecast

Advertisements
Track Severe Weather on mobile